sensor_id;sensor_type;location;lat;lon;timestamp;P1;durP1;ratioP1;P2;durP2;ratioP2
23539;SDS011;11947;50.810;4.394;2023-01-30T00:00:49;76.13;;;30.45;;
23539;SDS011;11947;50.810;4.394;2023-01-30T00:09:34;73.07;;;32.42;;
23539;SDS011;11947;50.810;4.394;2023-01-30T00:11:59;74.10;;;30.52;;
23539;SDS011;11947;50.810;4.394;2023-01-30T00:14:26;69.72;;;29.30;;
23539;SDS011;11947;50.810;4.394;2023-01-30T00:16:52;73.47;;;29.13;;
23539;SDS011;11947;50.810;4.394;2023-01-30T00:19:17;74.22;;;29.88;;
23539;SDS011;11947;50.810;4.394;2023-01-30T00:21:43;71.10;;;31.23;;
23539;SDS011;11947;50.810;4.394;2023-01-30T00:24:08;69.55;;;28.35;;
23539;SDS011;11947;50.810;4.394;2023-01-30T00:26:34;69.93;;;30.85;;
23539;SDS011;11947;50.810;4.394;2023-01-30T00:28:59;72.57;;;30.20;;
23539;SDS011;11947;50.810;4.394;2023-01-30T00:31:25;67.35;;;29.65;;
23539;SDS011;11947;50.810;4.394;2023-01-30T00:33:50;72.00;;;30.27;;
23539;SDS011;11947;50.810;4.394;2023-01-30T00:36:16;75.03;;;30.38;;
23539;SDS011;11947;50.810;4.394;2023-01-30T00:38:42;68.15;;;31.13;;
23539;SDS011;11947;50.810;4.394;2023-01-30T00:41:07;92.38;;;36.58;;
23539;SDS011;11947;50.810;4.394;2023-01-30T00:43:34;75.88;;;30.65;;
23539;SDS011;11947;50.810;4.394;2023-01-30T00:46:23;75.47;;;31.33;;
23539;SDS011;11947;50.810;4.394;2023-01-30T00:49:14;65.53;;;28.98;;
23539;SDS011;11947;50.810;4.394;2023-01-30T00:51:40;67.90;;;29.55;;
23539;SDS011;11947;50.810;4.394;2023-01-30T00:54:06;69.72;;;30.15;;
23539;SDS011;11947;50.810;4.394;2023-01-30T00:56:31;68.35;;;28.52;;
23539;SDS011;11947;50.810;4.394;2023-01-30T00:58:57;63.13;;;28.85;;
23539;SDS011;11947;50.810;4.394;2023-01-30T01:01:23;66.05;;;28.40;;
23539;SDS011;11947;50.810;4.394;2023-01-30T01:03:51;69.97;;;30.17;;
23539;SDS011;11947;50.810;4.394;2023-01-30T01:06:18;64.95;;;29.13;;
23539;SDS011;11947;50.810;4.394;2023-01-30T01:08:46;63.90;;;28.50;;
23539;SDS011;11947;50.810;4.394;2023-01-30T01:11:11;69.45;;;28.75;;
23539;SDS011;11947;50.810;4.394;2023-01-30T01:13:48;65.20;;;29.05;;
23539;SDS011;11947;50.810;4.394;2023-01-30T01:16:17;70.82;;;30.17;;
23539;SDS011;11947;50.810;4.394;2023-01-30T01:18:43;64.53;;;29.73;;
23539;SDS011;11947;50.810;4.394;2023-01-30T01:21:09;62.83;;;29.27;;
23539;SDS011;11947;50.810;4.394;2023-01-30T01:23:35;90.28;;;28.25;;
23539;SDS011;11947;50.810;4.394;2023-01-30T01:26:01;62.03;;;28.15;;
23539;SDS011;11947;50.810;4.394;2023-01-30T01:28:27;58.70;;;27.35;;
23539;SDS011;11947;50.810;4.394;2023-01-30T01:30:52;63.25;;;28.58;;
23539;SDS011;11947;50.810;4.394;2023-01-30T01:33:18;61.92;;;27.80;;
23539;SDS011;11947;50.810;4.394;2023-01-30T01:35:44;63.38;;;27.48;;
23539;SDS011;11947;50.810;4.394;2023-01-30T01:38:11;59.78;;;27.95;;
23539;SDS011;11947;50.810;4.394;2023-01-30T01:40:37;59.25;;;27.83;;
23539;SDS011;11947;50.810;4.394;2023-01-30T01:43:22;59.83;;;27.17;;
23539;SDS011;11947;50.810;4.394;2023-01-30T01:45:57;65.78;;;26.98;;
23539;SDS011;11947;50.810;4.394;2023-01-30T01:48:46;57.75;;;25.98;;
23539;SDS011;11947;50.810;4.394;2023-01-30T01:54:20;58.75;;;24.95;;
23539;SDS011;11947;50.810;4.394;2023-01-30T01:56:53;62.08;;;25.70;;
23539;SDS011;11947;50.810;4.394;2023-01-30T01:59:21;64.47;;;27.33;;
23539;SDS011;11947;50.810;4.394;2023-01-30T02:01:55;65.63;;;28.02;;
23539;SDS011;11947;50.810;4.394;2023-01-30T02:04:24;60.63;;;26.42;;
23539;SDS011;11947;50.810;4.394;2023-01-30T02:07:10;58.85;;;25.55;;
23539;SDS011;11947;50.810;4.394;2023-01-30T02:09:39;63.90;;;26.77;;
23539;SDS011;11947;50.810;4.394;2023-01-30T02:12:04;59.55;;;26.27;;
23539;SDS011;11947;50.810;4.394;2023-01-30T02:14:30;56.40;;;25.08;;
23539;SDS011;11947;50.810;4.394;2023-01-30T02:16:58;60.58;;;25.60;;
23539;SDS011;11947;50.810;4.394;2023-01-30T02:25:10;57.28;;;25.63;;
23539;SDS011;11947;50.810;4.394;2023-01-30T02:30:37;53.40;;;24.42;;
23539;SDS011;11947;50.810;4.394;2023-01-30T02:38:16;62.38;;;26.02;;
23539;SDS011;11947;50.810;4.394;2023-01-30T02:43:51;56.78;;;25.45;;
23539;SDS011;11947;50.810;4.394;2023-01-30T02:46:31;52.65;;;24.55;;
23539;SDS011;11947;50.810;4.394;2023-01-30T02:52:12;113.93;;;25.83;;
23539;SDS011;11947;50.810;4.394;2023-01-30T02:54:39;63.75;;;25.35;;
23539;SDS011;11947;50.810;4.394;2023-01-30T02:57:16;54.08;;;24.25;;
23539;SDS011;11947;50.810;4.394;2023-01-30T02:59:45;96.55;;;26.48;;
23539;SDS011;11947;50.810;4.394;2023-01-30T03:02:18;51.83;;;23.85;;
23539;SDS011;11947;50.810;4.394;2023-01-30T03:05:01;58.97;;;24.20;;
23539;SDS011;11947;50.810;4.394;2023-01-30T03:07:52;55.60;;;23.85;;
23539;SDS011;11947;50.810;4.394;2023-01-30T03:18:21;53.28;;;22.52;;
23539;SDS011;11947;50.810;4.394;2023-01-30T03:20:47;52.47;;;24.05;;
23539;SDS011;11947;50.810;4.394;2023-01-30T03:23:14;50.53;;;22.05;;
23539;SDS011;11947;50.810;4.394;2023-01-30T03:25:40;46.50;;;21.90;;
23539;SDS011;11947;50.810;4.394;2023-01-30T03:28:07;45.70;;;21.65;;
23539;SDS011;11947;50.810;4.394;2023-01-30T03:30:34;49.10;;;21.15;;
23539;SDS011;11947;50.810;4.394;2023-01-30T03:33:00;52.55;;;21.65;;
23539;SDS011;11947;50.810;4.394;2023-01-30T03:35:26;47.45;;;21.25;;
23539;SDS011;11947;50.810;4.394;2023-01-30T03:37:54;48.40;;;20.38;;
23539;SDS011;11947;50.810;4.394;2023-01-30T03:40:19;49.53;;;21.00;;
23539;SDS011;11947;50.810;4.394;2023-01-30T03:42:45;49.03;;;21.88;;
23539;SDS011;11947;50.810;4.394;2023-01-30T03:45:11;48.03;;;21.25;;
23539;SDS011;11947;50.810;4.394;2023-01-30T03:47:36;51.47;;;21.65;;
23539;SDS011;11947;50.810;4.394;2023-01-30T03:50:02;51.97;;;22.23;;
23539;SDS011;11947;50.810;4.394;2023-01-30T03:52:28;48.58;;;21.55;;
23539;SDS011;11947;50.810;4.394;2023-01-30T03:54:54;45.92;;;21.52;;
23539;SDS011;11947;50.810;4.394;2023-01-30T03:57:19;51.03;;;20.42;;
23539;SDS011;11947;50.810;4.394;2023-01-30T03:59:45;50.95;;;22.10;;
23539;SDS011;11947;50.810;4.394;2023-01-30T04:02:10;48.42;;;20.48;;
23539;SDS011;11947;50.810;4.394;2023-01-30T04:04:37;45.85;;;19.65;;
23539;SDS011;11947;50.810;4.394;2023-01-30T04:07:03;50.33;;;20.63;;
23539;SDS011;11947;50.810;4.394;2023-01-30T04:09:28;47.42;;;19.88;;
23539;SDS011;11947;50.810;4.394;2023-01-30T04:11:54;46.40;;;19.17;;
23539;SDS011;11947;50.810;4.394;2023-01-30T04:14:19;42.75;;;17.85;;
23539;SDS011;11947;50.810;4.394;2023-01-30T04:16:45;52.03;;;20.48;;
23539;SDS011;11947;50.810;4.394;2023-01-30T04:19:11;55.20;;;21.50;;
23539;SDS011;11947;50.810;4.394;2023-01-30T04:21:36;64.65;;;20.55;;
23539;SDS011;11947;50.810;4.394;2023-01-30T04:24:02;49.83;;;20.58;;
23539;SDS011;11947;50.810;4.394;2023-01-30T04:26:27;49.95;;;20.10;;
23539;SDS011;11947;50.810;4.394;2023-01-30T04:28:53;48.80;;;19.25;;
23539;SDS011;11947;50.810;4.394;2023-01-30T04:31:19;51.85;;;21.17;;
23539;SDS011;11947;50.810;4.394;2023-01-30T04:33:44;46.47;;;18.88;;
23539;SDS011;11947;50.810;4.394;2023-01-30T04:36:10;46.78;;;19.92;;
23539;SDS011;11947;50.810;4.394;2023-01-30T04:38:36;50.20;;;20.48;;
23539;SDS011;11947;50.810;4.394;2023-01-30T04:41:03;50.92;;;21.63;;
23539;SDS011;11947;50.810;4.394;2023-01-30T04:43:29;46.97;;;20.67;;
23539;SDS011;11947;50.810;4.394;2023-01-30T04:45:55;48.10;;;19.75;;
23539;SDS011;11947;50.810;4.394;2023-01-30T04:48:21;48.83;;;20.95;;
23539;SDS011;11947;50.810;4.394;2023-01-30T04:50:49;108.57;;;21.65;;
23539;SDS011;11947;50.810;4.394;2023-01-30T04:53:16;49.15;;;19.55;;
23539;SDS011;11947;50.810;4.394;2023-01-30T04:55:42;43.92;;;19.55;;
23539;SDS011;11947;50.810;4.394;2023-01-30T04:58:11;42.88;;;19.50;;
23539;SDS011;11947;50.810;4.394;2023-01-30T05:00:37;47.70;;;19.65;;
23539;SDS011;11947;50.810;4.394;2023-01-30T05:03:05;44.13;;;18.98;;
23539;SDS011;11947;50.810;4.394;2023-01-30T05:05:31;49.60;;;20.13;;
23539;SDS011;11947;50.810;4.394;2023-01-30T05:07:58;49.55;;;18.80;;
23539;SDS011;11947;50.810;4.394;2023-01-30T05:10:23;40.60;;;18.02;;
23539;SDS011;11947;50.810;4.394;2023-01-30T05:12:49;40.55;;;17.85;;
23539;SDS011;11947;50.810;4.394;2023-01-30T05:15:15;41.95;;;17.55;;
23539;SDS011;11947;50.810;4.394;2023-01-30T05:17:40;41.38;;;17.52;;
23539;SDS011;11947;50.810;4.394;2023-01-30T05:20:07;42.88;;;18.90;;
23539;SDS011;11947;50.810;4.394;2023-01-30T05:22:34;87.90;;;18.35;;
23539;SDS011;11947;50.810;4.394;2023-01-30T05:25:00;43.88;;;17.25;;
23539;SDS011;11947;50.810;4.394;2023-01-30T05:27:26;43.05;;;17.15;;
23539;SDS011;11947;50.810;4.394;2023-01-30T05:29:51;103.78;;;24.52;;
23539;SDS011;11947;50.810;4.394;2023-01-30T05:32:17;39.30;;;16.88;;
23539;SDS011;11947;50.810;4.394;2023-01-30T05:34:43;49.17;;;18.30;;
23539;SDS011;11947;50.810;4.394;2023-01-30T05:37:10;40.83;;;17.05;;
23539;SDS011;11947;50.810;4.394;2023-01-30T05:39:36;43.40;;;17.33;;
23539;SDS011;11947;50.810;4.394;2023-01-30T05:42:05;39.45;;;17.00;;
23539;SDS011;11947;50.810;4.394;2023-01-30T05:44:30;38.40;;;16.85;;
23539;SDS011;11947;50.810;4.394;2023-01-30T05:46:56;42.90;;;17.20;;
23539;SDS011;11947;50.810;4.394;2023-01-30T05:49:22;43.42;;;18.67;;
23539;SDS011;11947;50.810;4.394;2023-01-30T05:51:48;42.15;;;18.25;;
23539;SDS011;11947;50.810;4.394;2023-01-30T05:54:13;48.95;;;18.10;;
23539;SDS011;11947;50.810;4.394;2023-01-30T05:56:41;45.97;;;17.75;;
23539;SDS011;11947;50.810;4.394;2023-01-30T05:59:08;43.72;;;17.90;;
23539;SDS011;11947;50.810;4.394;2023-01-30T06:01:35;302.38;;;28.30;;
23539;SDS011;11947;50.810;4.394;2023-01-30T06:04:01;45.10;;;17.00;;
23539;SDS011;11947;50.810;4.394;2023-01-30T06:06:27;42.30;;;19.05;;
23539;SDS011;11947;50.810;4.394;2023-01-30T06:08:53;67.15;;;27.98;;
23539;SDS011;11947;50.810;4.394;2023-01-30T06:11:19;46.47;;;17.98;;
23539;SDS011;11947;50.810;4.394;2023-01-30T06:13:46;45.70;;;17.52;;
23539;SDS011;11947;50.810;4.394;2023-01-30T06:16:12;45.03;;;18.00;;
23539;SDS011;11947;50.810;4.394;2023-01-30T06:18:39;53.40;;;19.67;;
23539;SDS011;11947;50.810;4.394;2023-01-30T06:21:05;48.90;;;19.38;;
23539;SDS011;11947;50.810;4.394;2023-01-30T06:23:31;39.35;;;18.20;;
23539;SDS011;11947;50.810;4.394;2023-01-30T06:25:57;43.90;;;17.95;;
23539;SDS011;11947;50.810;4.394;2023-01-30T06:28:23;41.63;;;18.33;;
23539;SDS011;11947;50.810;4.394;2023-01-30T06:30:51;48.08;;;17.85;;
23539;SDS011;11947;50.810;4.394;2023-01-30T06:33:17;47.70;;;18.90;;
23539;SDS011;11947;50.810;4.394;2023-01-30T06:35:43;44.20;;;19.15;;
23539;SDS011;11947;50.810;4.394;2023-01-30T06:38:09;42.58;;;18.10;;
23539;SDS011;11947;50.810;4.394;2023-01-30T06:40:37;53.22;;;18.13;;
23539;SDS011;11947;50.810;4.394;2023-01-30T06:43:03;43.90;;;18.05;;
23539;SDS011;11947;50.810;4.394;2023-01-30T06:45:29;45.45;;;18.65;;
23539;SDS011;11947;50.810;4.394;2023-01-30T06:47:55;61.35;;;19.90;;
23539;SDS011;11947;50.810;4.394;2023-01-30T06:50:21;47.30;;;17.73;;
23539;SDS011;11947;50.810;4.394;2023-01-30T06:52:49;54.38;;;23.30;;
23539;SDS011;11947;50.810;4.394;2023-01-30T06:55:16;35.97;;;16.55;;
23539;SDS011;11947;50.810;4.394;2023-01-30T06:57:49;43.90;;;18.10;;
23539;SDS011;11947;50.810;4.394;2023-01-30T07:00:24;42.47;;;17.95;;
23539;SDS011;11947;50.810;4.394;2023-01-30T07:02:50;40.78;;;17.38;;
23539;SDS011;11947;50.810;4.394;2023-01-30T07:05:15;45.15;;;16.38;;
23539;SDS011;11947;50.810;4.394;2023-01-30T07:07:41;37.58;;;15.93;;
23539;SDS011;11947;50.810;4.394;2023-01-30T07:10:07;41.58;;;16.48;;
23539;SDS011;11947;50.810;4.394;2023-01-30T07:12:35;38.88;;;16.80;;
23539;SDS011;11947;50.810;4.394;2023-01-30T07:15:01;48.22;;;16.73;;
23539;SDS011;11947;50.810;4.394;2023-01-30T07:17:28;44.28;;;16.42;;
23539;SDS011;11947;50.810;4.394;2023-01-30T07:19:54;49.17;;;16.70;;
23539;SDS011;11947;50.810;4.394;2023-01-30T07:22:19;43.63;;;15.48;;
23539;SDS011;11947;50.810;4.394;2023-01-30T07:24:45;42.03;;;16.73;;
23539;SDS011;11947;50.810;4.394;2023-01-30T07:27:11;42.65;;;15.88;;
23539;SDS011;11947;50.810;4.394;2023-01-30T07:29:37;37.15;;;15.80;;
23539;SDS011;11947;50.810;4.394;2023-01-30T07:32:07;39.38;;;15.60;;
23539;SDS011;11947;50.810;4.394;2023-01-30T07:34:42;51.03;;;19.30;;
23539;SDS011;11947;50.810;4.394;2023-01-30T07:37:10;72.38;;;16.55;;
23539;SDS011;11947;50.810;4.394;2023-01-30T07:39:37;41.40;;;15.70;;
23539;SDS011;11947;50.810;4.394;2023-01-30T07:42:05;35.88;;;14.98;;
23539;SDS011;11947;50.810;4.394;2023-01-30T07:44:31;37.20;;;14.00;;
23539;SDS011;11947;50.810;4.394;2023-01-30T07:46:58;46.67;;;15.00;;
23539;SDS011;11947;50.810;4.394;2023-01-30T07:49:26;38.42;;;14.38;;
23539;SDS011;11947;50.810;4.394;2023-01-30T07:51:52;33.42;;;14.40;;
23539;SDS011;11947;50.810;4.394;2023-01-30T07:54:18;37.72;;;13.93;;
23539;SDS011;11947;50.810;4.394;2023-01-30T07:56:43;37.85;;;13.45;;
23539;SDS011;11947;50.810;4.394;2023-01-30T07:59:09;31.92;;;11.63;;
23539;SDS011;11947;50.810;4.394;2023-01-30T08:01:35;35.70;;;12.10;;
23539;SDS011;11947;50.810;4.394;2023-01-30T08:04:01;28.17;;;11.30;;
23539;SDS011;11947;50.810;4.394;2023-01-30T08:06:30;31.27;;;11.25;;
23539;SDS011;11947;50.810;4.394;2023-01-30T08:09:03;28.02;;;11.10;;
23539;SDS011;11947;50.810;4.394;2023-01-30T08:11:29;38.22;;;11.75;;
23539;SDS011;11947;50.810;4.394;2023-01-30T08:13:55;30.38;;;10.80;;
23539;SDS011;11947;50.810;4.394;2023-01-30T08:16:21;43.53;;;11.65;;
23539;SDS011;11947;50.810;4.394;2023-01-30T08:21:25;41.00;;;11.25;;
23539;SDS011;11947;50.810;4.394;2023-01-30T08:23:50;38.75;;;11.13;;
23539;SDS011;11947;50.810;4.394;2023-01-30T08:26:16;25.08;;;10.18;;
23539;SDS011;11947;50.810;4.394;2023-01-30T08:28:42;33.75;;;10.38;;
23539;SDS011;11947;50.810;4.394;2023-01-30T08:31:08;27.80;;;9.77;;
23539;SDS011;11947;50.810;4.394;2023-01-30T08:33:37;34.28;;;9.85;;
23539;SDS011;11947;50.810;4.394;2023-01-30T08:36:03;38.72;;;9.18;;
23539;SDS011;11947;50.810;4.394;2023-01-30T08:38:31;34.63;;;8.02;;
23539;SDS011;11947;50.810;4.394;2023-01-30T08:40:57;36.95;;;8.15;;
23539;SDS011;11947;50.810;4.394;2023-01-30T08:43:24;27.65;;;7.25;;
23539;SDS011;11947;50.810;4.394;2023-01-30T08:45:54;37.45;;;7.30;;
23539;SDS011;11947;50.810;4.394;2023-01-30T08:48:20;26.63;;;6.85;;
23539;SDS011;11947;50.810;4.394;2023-01-30T08:50:47;26.30;;;6.15;;
23539;SDS011;11947;50.810;4.394;2023-01-30T08:53:16;30.33;;;6.75;;
23539;SDS011;11947;50.810;4.394;2023-01-30T08:55:45;29.50;;;5.97;;
23539;SDS011;11947;50.810;4.394;2023-01-30T08:58:13;28.17;;;5.75;;
23539;SDS011;11947;50.810;4.394;2023-01-30T09:00:38;21.75;;;5.13;;
23539;SDS011;11947;50.810;4.394;2023-01-30T09:03:08;26.13;;;5.32;;
23539;SDS011;11947;50.810;4.394;2023-01-30T09:05:36;21.85;;;4.50;;
23539;SDS011;11947;50.810;4.394;2023-01-30T09:08:01;23.77;;;4.63;;
23539;SDS011;11947;50.810;4.394;2023-01-30T09:10:27;23.17;;;5.03;;
23539;SDS011;11947;50.810;4.394;2023-01-30T09:12:53;21.60;;;4.30;;
23539;SDS011;11947;50.810;4.394;2023-01-30T09:15:19;19.58;;;4.45;;
23539;SDS011;11947;50.810;4.394;2023-01-30T09:17:44;24.17;;;4.45;;
23539;SDS011;11947;50.810;4.394;2023-01-30T09:20:13;26.38;;;4.45;;
23539;SDS011;11947;50.810;4.394;2023-01-30T09:22:39;23.20;;;4.72;;
23539;SDS011;11947;50.810;4.394;2023-01-30T09:25:08;22.77;;;4.30;;
23539;SDS011;11947;50.810;4.394;2023-01-30T09:27:33;23.80;;;4.50;;
23539;SDS011;11947;50.810;4.394;2023-01-30T09:29:59;25.00;;;5.03;;
23539;SDS011;11947;50.810;4.394;2023-01-30T09:32:25;25.98;;;4.80;;
23539;SDS011;11947;50.810;4.394;2023-01-30T09:34:53;23.40;;;3.53;;
23539;SDS011;11947;50.810;4.394;2023-01-30T09:37:19;22.27;;;4.47;;
23539;SDS011;11947;50.810;4.394;2023-01-30T09:39:44;25.50;;;4.82;;
23539;SDS011;11947;50.810;4.394;2023-01-30T09:47:57;27.35;;;4.97;;
23539;SDS011;11947;50.810;4.394;2023-01-30T09:50:59;28.30;;;3.45;;
23539;SDS011;11947;50.810;4.394;2023-01-30T09:56:21;24.52;;;3.92;;
23539;SDS011;11947;50.810;4.394;2023-01-30T10:01:26;28.17;;;3.58;;
23539;SDS011;11947;50.810;4.394;2023-01-30T10:04:14;24.63;;;3.75;;
23539;SDS011;11947;50.810;4.394;2023-01-30T10:09:45;33.17;;;4.13;;
23539;SDS011;11947;50.810;4.394;2023-01-30T10:12:27;25.25;;;3.33;;
23539;SDS011;11947;50.810;4.394;2023-01-30T10:15:02;18.67;;;3.05;;
23539;SDS011;11947;50.810;4.394;2023-01-30T10:17:49;23.10;;;4.18;;
23539;SDS011;11947;50.810;4.394;2023-01-30T10:20:51;31.20;;;4.10;;
23539;SDS011;11947;50.810;4.394;2023-01-30T10:23:39;28.02;;;4.05;;
23539;SDS011;11947;50.810;4.394;2023-01-30T10:26:28;23.02;;;3.72;;
23539;SDS011;11947;50.810;4.394;2023-01-30T10:28:59;21.30;;;2.90;;
23539;SDS011;11947;50.810;4.394;2023-01-30T10:31:53;24.77;;;3.50;;
23539;SDS011;11947;50.810;4.394;2023-01-30T10:37:23;28.02;;;3.25;;
23539;SDS011;11947;50.810;4.394;2023-01-30T10:43:19;21.63;;;3.33;;
23539;SDS011;11947;50.810;4.394;2023-01-30T10:48:53;23.02;;;3.10;;
23539;SDS011;11947;50.810;4.394;2023-01-30T11:03:46;17.70;;;2.90;;
23539;SDS011;11947;50.810;4.394;2023-01-30T11:06:18;30.15;;;3.50;;
23539;SDS011;11947;50.810;4.394;2023-01-30T11:08:48;23.23;;;2.78;;
23539;SDS011;11947;50.810;4.394;2023-01-30T11:11:28;25.92;;;3.15;;
23539;SDS011;11947;50.810;4.394;2023-01-30T11:14:02;20.80;;;3.20;;
23539;SDS011;11947;50.810;4.394;2023-01-30T11:16:40;35.80;;;3.60;;
23539;SDS011;11947;50.810;4.394;2023-01-30T11:19:09;26.80;;;3.30;;
23539;SDS011;11947;50.810;4.394;2023-01-30T11:21:35;25.75;;;3.25;;
23539;SDS011;11947;50.810;4.394;2023-01-30T11:24:12;23.23;;;3.35;;
23539;SDS011;11947;50.810;4.394;2023-01-30T11:26:41;24.08;;;2.95;;
23539;SDS011;11947;50.810;4.394;2023-01-30T11:29:27;22.52;;;2.95;;
23539;SDS011;11947;50.810;4.394;2023-01-30T11:31:55;19.70;;;2.80;;
23539;SDS011;11947;50.810;4.394;2023-01-30T11:34:26;22.63;;;3.15;;
23539;SDS011;11947;50.810;4.394;2023-01-30T11:39:50;27.70;;;3.58;;
23539;SDS011;11947;50.810;4.394;2023-01-30T11:42:17;21.00;;;3.30;;
23539;SDS011;11947;50.810;4.394;2023-01-30T11:45:09;20.20;;;3.17;;
23539;SDS011;11947;50.810;4.394;2023-01-30T11:47:36;22.20;;;3.63;;
23539;SDS011;11947;50.810;4.394;2023-01-30T11:50:03;15.70;;;3.08;;
23539;SDS011;11947;50.810;4.394;2023-01-30T11:52:30;23.80;;;3.97;;
23539;SDS011;11947;50.810;4.394;2023-01-30T11:54:59;21.38;;;3.47;;
23539;SDS011;11947;50.810;4.394;2023-01-30T11:57:42;19.38;;;3.00;;
23539;SDS011;11947;50.810;4.394;2023-01-30T12:00:25;26.70;;;3.42;;
23539;SDS011;11947;50.810;4.394;2023-01-30T12:03:01;20.05;;;3.20;;
23539;SDS011;11947;50.810;4.394;2023-01-30T12:05:32;25.42;;;3.55;;
23539;SDS011;11947;50.810;4.394;2023-01-30T12:10:57;25.50;;;3.10;;
23539;SDS011;11947;50.810;4.394;2023-01-30T12:13:33;24.05;;;3.45;;
23539;SDS011;11947;50.810;4.394;2023-01-30T12:27:36;18.77;;;3.05;;
23539;SDS011;11947;50.810;4.394;2023-01-30T12:32:51;18.95;;;3.22;;
23539;SDS011;11947;50.810;4.394;2023-01-30T12:35:22;32.85;;;3.95;;
23539;SDS011;11947;50.810;4.394;2023-01-30T12:38:08;27.23;;;3.88;;
23539;SDS011;11947;50.810;4.394;2023-01-30T12:40:47;28.45;;;4.18;;
23539;SDS011;11947;50.810;4.394;2023-01-30T12:46:16;25.92;;;3.33;;
23539;SDS011;11947;50.810;4.394;2023-01-30T12:52:04;34.45;;;3.60;;
23539;SDS011;11947;50.810;4.394;2023-01-30T12:55:06;23.88;;;3.60;;
23539;SDS011;11947;50.810;4.394;2023-01-30T12:58:17;23.45;;;3.47;;
23539;SDS011;11947;50.810;4.394;2023-01-30T13:12:24;24.83;;;3.28;;
23539;SDS011;11947;50.810;4.394;2023-01-30T13:23:19;27.73;;;3.60;;
23539;SDS011;11947;50.810;4.394;2023-01-30T13:26:01;19.52;;;3.33;;
23539;SDS011;11947;50.810;4.394;2023-01-30T13:28:33;24.48;;;4.35;;
23539;SDS011;11947;50.810;4.394;2023-01-30T13:31:04;19.48;;;4.03;;
23539;SDS011;11947;50.810;4.394;2023-01-30T13:33:37;26.02;;;3.38;;
23539;SDS011;11947;50.810;4.394;2023-01-30T13:38:55;27.23;;;3.70;;
23539;SDS011;11947;50.810;4.394;2023-01-30T13:41:23;27.27;;;3.20;;
23539;SDS011;11947;50.810;4.394;2023-01-30T13:43:49;20.95;;;3.17;;
23539;SDS011;11947;50.810;4.394;2023-01-30T13:46:20;26.55;;;4.10;;
23539;SDS011;11947;50.810;4.394;2023-01-30T13:49:07;21.05;;;3.60;;
23539;SDS011;11947;50.810;4.394;2023-01-30T13:54:12;29.88;;;4.38;;
23539;SDS011;11947;50.810;4.394;2023-01-30T13:57:03;23.95;;;3.35;;
23539;SDS011;11947;50.810;4.394;2023-01-30T14:02:20;21.25;;;2.95;;
23539;SDS011;11947;50.810;4.394;2023-01-30T14:04:54;25.33;;;3.72;;
23539;SDS011;11947;50.810;4.394;2023-01-30T14:07:22;25.27;;;3.35;;
23539;SDS011;11947;50.810;4.394;2023-01-30T14:10:02;25.15;;;3.40;;
23539;SDS011;11947;50.810;4.394;2023-01-30T14:12:36;29.85;;;3.85;;
23539;SDS011;11947;50.810;4.394;2023-01-30T14:20:34;33.47;;;3.75;;
23539;SDS011;11947;50.810;4.394;2023-01-30T14:25:55;25.92;;;3.42;;
23539;SDS011;11947;50.810;4.394;2023-01-30T14:30:48;20.35;;;3.45;;
23539;SDS011;11947;50.810;4.394;2023-01-30T14:36:31;24.70;;;3.70;;
23539;SDS011;11947;50.810;4.394;2023-01-30T14:38:37;29.77;;;4.38;;
23539;SDS011;11947;50.810;4.394;2023-01-30T14:56:19;28.52;;;3.83;;
23539;SDS011;11947;50.810;4.394;2023-01-30T14:59:00;30.08;;;3.60;;
23539;SDS011;11947;50.810;4.394;2023-01-30T15:04:25;33.97;;;3.78;;
23539;SDS011;11947;50.810;4.394;2023-01-30T15:06:54;33.75;;;3.50;;
23539;SDS011;11947;50.810;4.394;2023-01-30T15:09:23;28.88;;;3.35;;
23539;SDS011;11947;50.810;4.394;2023-01-30T15:12:14;24.65;;;3.55;;
23539;SDS011;11947;50.810;4.394;2023-01-30T15:17:26;25.13;;;3.08;;
23539;SDS011;11947;50.810;4.394;2023-01-30T15:22:52;26.88;;;3.28;;
23539;SDS011;11947;50.810;4.394;2023-01-30T15:28:22;26.10;;;4.10;;
23539;SDS011;11947;50.810;4.394;2023-01-30T15:31:13;23.50;;;3.58;;
23539;SDS011;11947;50.810;4.394;2023-01-30T15:33:43;32.90;;;4.80;;
23539;SDS011;11947;50.810;4.394;2023-01-30T15:36:19;27.98;;;3.70;;
23539;SDS011;11947;50.810;4.394;2023-01-30T15:38:54;24.63;;;3.95;;
23539;SDS011;11947;50.810;4.394;2023-01-30T15:41:24;33.13;;;5.03;;
23539;SDS011;11947;50.810;4.394;2023-01-30T15:51:58;40.20;;;4.70;;
23539;SDS011;11947;50.810;4.394;2023-01-30T15:54:28;24.33;;;4.20;;
23539;SDS011;11947;50.810;4.394;2023-01-30T15:56:54;28.58;;;4.10;;
23539;SDS011;11947;50.810;4.394;2023-01-30T15:59:25;25.40;;;3.97;;
23539;SDS011;11947;50.810;4.394;2023-01-30T16:04:42;26.75;;;3.80;;
23539;SDS011;11947;50.810;4.394;2023-01-30T16:07:15;28.75;;;4.13;;
23539;SDS011;11947;50.810;4.394;2023-01-30T16:09:41;31.23;;;4.18;;
23539;SDS011;11947;50.810;4.394;2023-01-30T16:12:24;35.83;;;4.07;;
23539;SDS011;11947;50.810;4.394;2023-01-30T16:14:51;24.05;;;3.92;;
23539;SDS011;11947;50.810;4.394;2023-01-30T16:17:22;27.90;;;4.70;;
23539;SDS011;11947;50.810;4.394;2023-01-30T16:19:50;26.90;;;4.20;;
23539;SDS011;11947;50.810;4.394;2023-01-30T16:22:17;27.05;;;4.90;;
23539;SDS011;11947;50.810;4.394;2023-01-30T16:24:46;26.10;;;3.50;;
23539;SDS011;11947;50.810;4.394;2023-01-30T16:27:17;27.65;;;4.30;;
23539;SDS011;11947;50.810;4.394;2023-01-30T16:29:51;30.05;;;4.15;;
23539;SDS011;11947;50.810;4.394;2023-01-30T16:32:26;32.15;;;3.83;;
23539;SDS011;11947;50.810;4.394;2023-01-30T16:37:51;32.30;;;3.92;;
23539;SDS011;11947;50.810;4.394;2023-01-30T16:40:25;24.70;;;3.80;;
23539;SDS011;11947;50.810;4.394;2023-01-30T16:43:19;28.52;;;4.07;;
23539;SDS011;11947;50.810;4.394;2023-01-30T16:50:43;28.00;;;4.35;;
23539;SDS011;11947;50.810;4.394;2023-01-30T16:53:14;29.30;;;4.65;;
23539;SDS011;11947;50.810;4.394;2023-01-30T16:58:34;30.70;;;4.18;;
23539;SDS011;11947;50.810;4.394;2023-01-30T17:01:02;29.52;;;3.95;;
23539;SDS011;11947;50.810;4.394;2023-01-30T17:03:32;30.40;;;4.93;;
23539;SDS011;11947;50.810;4.394;2023-01-30T17:06:08;35.92;;;4.70;;
23539;SDS011;11947;50.810;4.394;2023-01-30T17:14:16;34.35;;;5.22;;
23539;SDS011;11947;50.810;4.394;2023-01-30T17:16:42;22.92;;;4.93;;
23539;SDS011;11947;50.810;4.394;2023-01-30T17:19:10;30.85;;;4.65;;
23539;SDS011;11947;50.810;4.394;2023-01-30T17:21:40;34.00;;;4.97;;
23539;SDS011;11947;50.810;4.394;2023-01-30T17:24:13;32.70;;;5.65;;
23539;SDS011;11947;50.810;4.394;2023-01-30T17:26:41;34.10;;;4.45;;
23539;SDS011;11947;50.810;4.394;2023-01-30T17:29:16;33.33;;;5.18;;
23539;SDS011;11947;50.810;4.394;2023-01-30T17:32:04;33.60;;;4.80;;
23539;SDS011;11947;50.810;4.394;2023-01-30T17:34:32;35.72;;;5.63;;
23539;SDS011;11947;50.810;4.394;2023-01-30T17:36:58;31.10;;;4.82;;
23539;SDS011;11947;50.810;4.394;2023-01-30T17:39:23;29.17;;;4.93;;
23539;SDS011;11947;50.810;4.394;2023-01-30T17:41:50;30.80;;;5.47;;
23539;SDS011;11947;50.810;4.394;2023-01-30T17:44:16;27.27;;;4.72;;
23539;SDS011;11947;50.810;4.394;2023-01-30T17:46:46;25.17;;;4.90;;
23539;SDS011;11947;50.810;4.394;2023-01-30T17:51:42;33.45;;;5.47;;
23539;SDS011;11947;50.810;4.394;2023-01-30T17:54:09;33.45;;;5.45;;
23539;SDS011;11947;50.810;4.394;2023-01-30T17:56:36;34.08;;;5.50;;
23539;SDS011;11947;50.810;4.394;2023-01-30T17:59:04;32.33;;;4.68;;
23539;SDS011;11947;50.810;4.394;2023-01-30T18:01:34;27.55;;;4.43;;
23539;SDS011;11947;50.810;4.394;2023-01-30T18:03:59;29.45;;;5.03;;